Valle Grande, Argentina
Current Conditions -  °F | °C
As of 12:00 AM on Sunday 21 Dec 2014 (Local Time) from SASJ Reporting Station
Clear Clear  
Wind Chill: 77°   Ceiling: Unl
Heat Index: 79°   Visibility: 6mi
Dew Point: 68°   Wind: 3mph
Humidity: 74%   Direction: 270°W
Pressure: 29.56"   Gusts: NA
Location:  23.47°S, 64.98°W
Report Text: SASJ 210300Z 27003KT CAVOK 25/20 Q1001
Loading
Personal Weather Stations






























Interactive Weather Map New forecast layout! Learn more

10-Day Weather Forecast

Advertisements
Track Severe Weather on mobile